East Fultonham, Ohio
Current Conditions -  °F | °C
As of 9:53 PM on Saturday 22 Nov 2014 (Local Time) from KZZV Reporting Station
Overcast Overcast  
Wind Chill: 47°   Ceiling: 10000
Heat Index: 47°   Visibility: 10mi
Dew Point: 31°   Wind: 3mph
Humidity: 54%   Direction: 190°S
Pressure: 30.1"   Gusts: NA
Location:  39.85°N, 82.12°W
Report Text: KZZV 230253Z AUTO 19003KT 10SM OVC100 08/M01 A3010 RMK AO2 SLP197 T00831006 56007
Loading
Personal Weather Stations






























Interactive Weather Map New forecast layout! Learn more

10-Day Weather Forecast

Advertisements
Track Severe Weather on mobile